Time;durP1;ratioP1;P1;durP2;ratioP2;P2;SDS_P1;SDS_P2;PMS_P1;PMS_P2;Temp;Humidity;BMP_temperature;BMP_pressure;BME280_temperature;BME280_humidity;BME280_pressure;Samples;Min_cycle;Max_cycle;Signal;HPM_P1;HPM_P2
2022/04/28 00:02:09;;;;;;;;;;;8.20;57.60;;;;;;5069383;28;20015;-73
2022/04/28 00:04:34;;;;;;;;;;;8.10;57.60;;;;;;5069626;28;19955;-72
2022/04/28 00:07:00;;;;;;;;;;;8.10;57.70;;;;;;5069334;28;19942;-74
2022/04/28 00:09:25;;;;;;;;;;;8.10;57.80;;;;;;5069451;28;19913;-74
2022/04/28 00:11:52;;;;;;;;;;;8.10;57.70;;;;;;5069421;28;19950;-73
2022/04/28 00:14:18;;;;;;;;;;;8.10;57.80;;;;;;5069500;28;19951;-74
2022/04/28 00:16:43;;;;;;;;;;;8.10;57.70;;;;;;5069331;28;19912;-73
2022/04/28 00:19:09;;;;;;;;;;;8.10;57.70;;;;;;5069237;28;19982;-73
2022/04/28 00:21:35;;;;;;;;;;;8.00;57.70;;;;;;5069096;28;19916;-72
2022/04/28 00:24:00;;;;;;;;;;;8.00;57.80;;;;;;5069340;28;19913;-73
2022/04/28 00:26:26;;;;;;;;;;;7.90;57.90;;;;;;5067752;28;19917;-73
2022/04/28 00:28:51;;;;;;;;;;;7.90;58.00;;;;;;5051066;28;19955;-73
2022/04/28 00:31:17;;;;;;;;;;;8.00;57.90;;;;;;5068831;28;19921;-74
2022/04/28 00:33:42;;;;;;;;;;;8.00;57.80;;;;;;5069017;28;20597;-73
2022/04/28 00:36:09;;;;;;;;;;;8.00;57.70;;;;;;5068947;28;19908;-73
2022/04/28 00:38:35;;;;;;;;;;;8.00;57.80;;;;;;5068877;28;19965;-72
2022/04/28 00:41:01;;;;;;;;;;;8.00;57.70;;;;;;5068959;28;19959;-72
2022/04/28 00:43:30;;;;;;;;;;;8.00;57.70;;;;;;5067434;28;19920;-73
2022/04/28 00:45:56;;;;;;;;;;;8.00;57.90;;;;;;5068763;28;19927;-73
2022/04/28 00:51:06;;;;;;;;;;;7.90;58.00;;;;;;5068039;28;20282;-73
2022/04/28 00:53:37;;;;;;;;;;;7.80;58.10;;;;;;5068654;28;19919;-73
2022/04/28 00:56:03;;;;;;;;;;;7.80;58.10;;;;;;5068555;28;19999;-73
2022/04/28 00:58:28;;;;;;;;;;;7.80;58.10;;;;;;5068471;28;19931;-73
2022/04/28 01:00:55;;;;;;;;;;;7.70;58.10;;;;;;5068458;28;20613;-73
2022/04/28 01:03:21;;;;;;;;;;;7.60;58.20;;;;;;5068433;28;20109;-73
2022/04/28 01:05:47;;;;;;;;;;;7.60;58.20;;;;;;5068479;28;19921;-73
2022/04/28 01:08:13;;;;;;;;;;;7.50;58.30;;;;;;5068536;28;19908;-73
2022/04/28 01:10:39;;;;;;;;;;;7.50;58.40;;;;;;5067097;28;20412;-73
2022/04/28 01:13:04;;;;;;;;;;;7.50;58.40;;;;;;5068582;28;19912;-73
2022/04/28 01:15:30;;;;;;;;;;;7.50;58.30;;;;;;5068403;28;19913;-73
2022/04/28 01:17:56;;;;;;;;;;;7.60;58.30;;;;;;5067661;28;19927;-73
2022/04/28 01:20:21;;;;;;;;;;;7.60;58.10;;;;;;5068258;28;19919;-73
2022/04/28 01:22:47;;;;;;;;;;;7.60;58.00;;;;;;5068314;28;19967;-73
2022/04/28 01:25:12;;;;;;;;;;;7.60;58.00;;;;;;5068315;28;20383;-73
2022/04/28 01:27:38;;;;;;;;;;;7.60;57.90;;;;;;5068150;28;19920;-73
2022/04/28 01:30:10;;;;;;;;;;;7.60;57.90;;;;;;5067877;28;20303;-73
2022/04/28 01:32:35;;;;;;;;;;;7.50;57.90;;;;;;5068089;28;20115;-73
2022/04/28 01:35:01;;;;;;;;;;;7.50;58.00;;;;;;5068091;28;19954;-73
2022/04/28 01:37:26;;;;;;;;;;;7.50;58.00;;;;;;5068157;28;20009;-72
2022/04/28 01:39:53;;;;;;;;;;;7.50;58.00;;;;;;5067936;28;19913;-73
2022/04/28 01:42:18;;;;;;;;;;;7.40;57.90;;;;;;5067947;28;19920;-73
2022/04/28 01:44:44;;;;;;;;;;;7.30;57.90;;;;;;5066897;28;19909;-73
2022/04/28 01:47:09;;;;;;;;;;;7.30;58.00;;;;;;5067993;28;19920;-74
2022/04/28 01:49:35;;;;;;;;;;;7.20;58.10;;;;;;5067756;28;19916;-73
2022/04/28 01:55:00;;;;;;;;;;;7.20;58.00;;;;;;5068163;28;19920;-73
2022/04/28 01:57:29;;;;;;;;;;;7.20;57.90;;;;;;5068094;28;19913;-73
2022/04/28 01:59:56;;;;;;;;;;;7.10;57.90;;;;;;5066415;28;19920;-73
2022/04/28 02:02:22;;;;;;;;;;;7.00;58.10;;;;;;5067763;28;19917;-73
2022/04/28 02:04:47;;;;;;;;;;;6.90;58.20;;;;;;5067852;28;20045;-73
2022/04/28 02:07:13;;;;;;;;;;;6.90;58.20;;;;;;5067816;28;19912;-73
2022/04/28 02:09:42;;;;;;;;;;;7.00;58.30;;;;;;5067783;28;19915;-73
2022/04/28 02:12:08;;;;;;;;;;;7.00;58.20;;;;;;5067776;28;19983;-73
2022/04/28 02:14:34;;;;;;;;;;;7.00;58.20;;;;;;5067747;28;20019;-73
2022/04/28 02:17:01;;;;;;;;;;;7.00;58.20;;;;;;5066172;28;20392;-73
2022/04/28 02:19:26;;;;;;;;;;;7.00;58.00;;;;;;5067525;28;19916;-73
2022/04/28 02:21:52;;;;;;;;;;;7.00;58.10;;;;;;5066332;28;19917;-74
2022/04/28 02:24:17;;;;;;;;;;;7.00;58.00;;;;;;5067606;28;20006;-73
2022/04/28 02:26:43;;;;;;;;;;;7.00;58.00;;;;;;5067742;28;19924;-72
2022/04/28 02:29:08;;;;;;;;;;;7.00;58.00;;;;;;5066387;28;19995;-73
2022/04/28 02:31:34;;;;;;;;;;;7.00;58.00;;;;;;5070259;28;20006;-73
2022/04/28 02:34:00;;;;;;;;;;;7.00;58.00;;;;;;5071240;28;19934;-72
2022/04/28 02:36:25;;;;;;;;;;;7.00;58.00;;;;;;5071271;28;19912;-73
2022/04/28 02:38:51;;;;;;;;;;;7.00;58.00;;;;;;5071120;28;19916;-73
2022/04/28 02:41:20;;;;;;;;;;;7.00;58.50;;;;;;5071108;28;20390;-74
2022/04/28 02:43:49;;;;;;;;;;;7.00;58.00;;;;;;5071198;28;20382;-73
2022/04/28 02:46:15;;;;;;;;;;;7.00;57.90;;;;;;5071133;28;19920;-73
2022/04/28 02:48:41;;;;;;;;;;;7.00;57.90;;;;;;5070890;28;19909;-73
2022/04/28 02:51:06;;;;;;;;;;;7.00;58.00;;;;;;5071020;28;20026;-73
2022/04/28 02:53:32;;;;;;;;;;;7.00;58.10;;;;;;5071210;28;19913;-73
2022/04/28 02:55:58;;;;;;;;;;;7.00;58.20;;;;;;5071096;28;19922;-73
2022/04/28 02:58:23;;;;;;;;;;;7.00;58.20;;;;;;5070784;28;19958;-73
2022/04/28 03:00:49;;;;;;;;;;;7.00;58.20;;;;;;5070841;28;20393;-73
2022/04/28 03:03:14;;;;;;;;;;;6.90;58.20;;;;;;5070695;28;19920;-73
2022/04/28 03:11:09;;;;;;;;;;;7.00;58.30;;;;;;5070898;28;19916;-72
2022/04/28 03:13:35;;;;;;;;;;;7.10;58.30;;;;;;5070658;28;20439;-72
2022/04/28 03:16:01;;;;;;;;;;;7.10;58.20;;;;;;5070578;28;19908;-73
2022/04/28 03:18:27;;;;;;;;;;;7.00;58.20;;;;;;5070392;28;20435;-72
2022/04/28 03:20:53;;;;;;;;;;;7.00;58.30;;;;;;5070578;28;19961;-73
2022/04/28 03:23:19;;;;;;;;;;;6.90;58.30;;;;;;5069123;28;20570;-72
2022/04/28 03:25:44;;;;;;;;;;;6.80;58.50;;;;;;5070409;28;20045;-73
2022/04/28 03:28:10;;;;;;;;;;;6.80;58.50;;;;;;5070270;28;19908;-73
2022/04/28 03:30:36;;;;;;;;;;;6.90;58.60;;;;;;5070304;28;20108;-73
2022/04/28 03:33:01;;;;;;;;;;;6.90;58.50;;;;;;5069160;28;19931;-73
2022/04/28 03:35:27;;;;;;;;;;;7.00;58.40;;;;;;5070298;28;20300;-74
2022/04/28 03:37:52;;;;;;;;;;;7.00;58.30;;;;;;5070133;28;19912;-74
2022/04/28 03:40:18;;;;;;;;;;;7.10;58.30;;;;;;5070242;28;19916;-72
2022/04/28 03:42:44;;;;;;;;;;;7.10;58.30;;;;;;5069586;28;20370;-72
2022/04/28 03:45:10;;;;;;;;;;;7.10;58.30;;;;;;5069904;28;20375;-73
2022/04/28 03:47:36;;;;;;;;;;;7.00;58.30;;;;;;5069947;28;19912;-73
2022/04/28 03:50:05;;;;;;;;;;;7.00;58.30;;;;;;5068836;28;19966;-73
2022/04/28 03:52:30;;;;;;;;;;;7.00;58.30;;;;;;5070044;28;20410;-72
2022/04/28 03:54:56;;;;;;;;;;;7.00;58.30;;;;;;5068528;28;19955;-72
2022/04/28 03:57:21;;;;;;;;;;;7.10;58.20;;;;;;5069690;28;20278;-72
2022/04/28 03:59:47;;;;;;;;;;;7.00;58.10;;;;;;5069451;28;19923;-73
2022/04/28 04:02:12;;;;;;;;;;;7.00;58.20;;;;;;5069458;28;19917;-73
2022/04/28 04:04:38;;;;;;;;;;;6.90;58.20;;;;;;5069547;28;19913;-72
2022/04/28 04:07:04;;;;;;;;;;;6.90;58.20;;;;;;5069511;28;19939;-73
2022/04/28 04:09:29;;;;;;;;;;;6.90;58.20;;;;;;5069468;28;20003;-73
2022/04/28 04:11:55;;;;;;;;;;;6.90;58.30;;;;;;5069376;28;19912;-73
2022/04/28 04:14:20;;;;;;;;;;;6.90;58.40;;;;;;5069427;28;20382;-73
2022/04/28 04:16:46;;;;;;;;;;;6.90;58.30;;;;;;5069375;28;20386;-73
2022/04/28 04:19:11;;;;;;;;;;;6.90;58.30;;;;;;5069290;28;20252;-73
2022/04/28 04:21:37;;;;;;;;;;;6.90;58.30;;;;;;5069311;28;19920;-73
2022/04/28 04:24:03;;;;;;;;;;;6.90;58.30;;;;;;5069221;28;19923;-73
2022/04/28 04:26:28;;;;;;;;;;;7.00;58.40;;;;;;5069252;28;20391;-74
2022/04/28 04:28:54;;;;;;;;;;;7.00;58.40;;;;;;5069110;28;19935;-73
2022/04/28 04:34:04;;;;;;;;;;;7.00;58.30;;;;;;5069353;28;19973;-73
2022/04/28 04:36:29;;;;;;;;;;;7.00;58.30;;;;;;5068958;28;20376;-73
2022/04/28 04:38:55;;;;;;;;;;;7.00;58.40;;;;;;5068951;28;20315;-73
2022/04/28 04:41:20;;;;;;;;;;;7.00;58.50;;;;;;5068837;28;20374;-73
2022/04/28 04:43:46;;;;;;;;;;;7.00;58.50;;;;;;5068834;28;19923;-74
2022/04/28 04:46:11;;;;;;;;;;;7.10;58.50;;;;;;5068677;28;19923;-73
2022/04/28 04:48:37;;;;;;;;;;;7.00;58.50;;;;;;5068666;28;20337;-73
2022/04/28 04:51:03;;;;;;;;;;;7.10;58.50;;;;;;5067394;28;19960;-73
2022/04/28 04:53:28;;;;;;;;;;;7.10;58.40;;;;;;5067907;28;19916;-74
2022/04/28 04:55:54;;;;;;;;;;;7.20;58.50;;;;;;5050412;28;19981;-73
2022/04/28 04:58:19;;;;;;;;;;;7.20;58.50;;;;;;5067410;28;19912;-73
2022/04/28 05:00:45;;;;;;;;;;;7.20;58.50;;;;;;5068677;28;19912;-73
2022/04/28 05:03:11;;;;;;;;;;;7.30;58.60;;;;;;5068470;28;20397;-73
2022/04/28 05:05:37;;;;;;;;;;;7.30;58.50;;;;;;5068600;28;19921;-73
2022/04/28 05:08:02;;;;;;;;;;;7.40;58.50;;;;;;5068250;28;20297;-73
2022/04/28 05:10:28;;;;;;;;;;;7.40;58.50;;;;;;5068399;28;20050;-73
2022/04/28 05:12:53;;;;;;;;;;;7.50;58.40;;;;;;5068327;28;20341;-74
2022/04/28 05:15:19;;;;;;;;;;;7.50;58.30;;;;;;5067078;28;19923;-73
2022/04/28 05:17:45;;;;;;;;;;;7.50;58.30;;;;;;5068150;28;19919;-73
2022/04/28 05:20:10;;;;;;;;;;;7.50;58.40;;;;;;5066821;28;19909;-73
2022/04/28 05:22:36;;;;;;;;;;;7.50;58.40;;;;;;5068242;28;19923;-73
2022/04/28 05:25:01;;;;;;;;;;;7.60;58.50;;;;;;5068206;28;19916;-73
2022/04/28 05:27:27;;;;;;;;;;;7.60;58.50;;;;;;5067830;28;20414;-73
2022/04/28 05:29:53;;;;;;;;;;;7.70;58.40;;;;;;5067675;28;19912;-73
2022/04/28 05:32:19;;;;;;;;;;;7.70;58.40;;;;;;5068489;28;19918;-67
2022/04/28 05:34:44;;;;;;;;;;;7.80;58.40;;;;;;5068106;28;19909;-74
2022/04/28 05:37:12;;;;;;;;;;;7.80;58.40;;;;;;5068069;28;19919;-74
2022/04/28 05:39:39;;;;;;;;;;;7.80;58.30;;;;;;5067920;28;19908;-73
2022/04/28 05:42:05;;;;;;;;;;;7.80;58.40;;;;;;5067894;28;19966;-73
2022/04/28 05:47:15;;;;;;;;;;;7.70;58.50;;;;;;5068146;28;20346;-73
2022/04/28 05:49:40;;;;;;;;;;;7.60;58.40;;;;;;5067671;28;19939;-73
2022/04/28 05:52:07;;;;;;;;;;;7.50;58.30;;;;;;5067747;28;20355;-73
2022/04/28 05:54:33;;;;;;;;;;;7.50;58.40;;;;;;5050094;28;20407;-71
2022/04/28 05:56:58;;;;;;;;;;;7.50;58.50;;;;;;5067745;28;19916;-72
2022/04/28 05:59:24;;;;;;;;;;;7.50;58.50;;;;;;5067532;28;20271;-72
2022/04/28 06:01:49;;;;;;;;;;;7.50;58.50;;;;;;5067669;28;20324;-73
2022/04/28 06:04:15;;;;;;;;;;;7.50;58.50;;;;;;5067274;28;19916;-73
2022/04/28 06:06:41;;;;;;;;;;;7.60;58.60;;;;;;5071625;28;20286;-73
2022/04/28 06:09:06;;;;;;;;;;;7.70;58.60;;;;;;5069741;28;20009;-73
2022/04/28 06:11:32;;;;;;;;;;;7.80;58.70;;;;;;5071605;28;19920;-73
2022/04/28 06:13:58;;;;;;;;;;;7.90;58.80;;;;;;5071474;28;20367;-73
2022/04/28 06:16:23;;;;;;;;;;;8.00;58.70;;;;;;5071644;28;19931;-72
2022/04/28 06:18:49;;;;;;;;;;;8.10;58.60;;;;;;5071373;28;19917;-73
2022/04/28 06:21:14;;;;;;;;;;;8.20;58.60;;;;;;5071290;28;19908;-73
2022/04/28 06:23:40;;;;;;;;;;;8.30;58.60;;;;;;5069938;28;19983;-73
2022/04/28 06:26:06;;;;;;;;;;;8.30;58.60;;;;;;5071316;28;19966;-73
2022/04/28 06:28:31;;;;;;;;;;;8.40;58.70;;;;;;5070554;28;19921;-74
2022/04/28 06:30:57;;;;;;;;;;;8.50;58.70;;;;;;5071026;28;19939;-73
2022/04/28 06:33:22;;;;;;;;;;;8.60;58.60;;;;;;5070850;28;19919;-74
2022/04/28 06:35:48;;;;;;;;;;;8.70;58.60;;;;;;5070983;28;19912;-72
2022/04/28 06:38:14;;;;;;;;;;;8.80;58.70;;;;;;5070622;28;19908;-71
2022/04/28 06:40:39;;;;;;;;;;;8.90;58.70;;;;;;5071100;28;20362;-73
2022/04/28 06:43:05;;;;;;;;;;;9.00;58.70;;;;;;5071239;28;19917;-72
2022/04/28 06:45:30;;;;;;;;;;;9.10;58.60;;;;;;5070716;28;20420;-72
2022/04/28 06:47:56;;;;;;;;;;;9.20;58.60;;;;;;5070806;28;19915;-71
2022/04/28 06:50:21;;;;;;;;;;;9.30;58.60;;;;;;5069834;28;20321;-72
2022/04/28 06:52:47;;;;;;;;;;;9.40;58.50;;;;;;5069337;28;19916;-72
2022/04/28 06:55:13;;;;;;;;;;;9.50;58.50;;;;;;5068644;28;19948;-71
2022/04/28 06:57:39;;;;;;;;;;;9.60;58.40;;;;;;5069890;28;19916;-72
2022/04/28 07:00:06;;;;;;;;;;;9.70;58.60;;;;;;5070383;28;19915;-72
2022/04/28 07:02:31;;;;;;;;;;;9.80;58.70;;;;;;5070307;28;19916;-72
2022/04/28 07:04:57;;;;;;;;;;;9.90;58.70;;;;;;5070169;28;19994;-71
2022/04/28 07:07:23;;;;;;;;;;;10.00;58.90;;;;;;5069997;28;19912;-71
2022/04/28 07:09:48;;;;;;;;;;;10.10;59.00;;;;;;5070150;28;19912;-72
2022/04/28 07:12:14;;;;;;;;;;;10.20;58.90;;;;;;5070265;28;19916;-72
2022/04/28 07:14:40;;;;;;;;;;;10.40;59.00;;;;;;5070199;28;19919;-72
2022/04/28 07:17:06;;;;;;;;;;;10.50;58.90;;;;;;5069329;28;19918;-72
2022/04/28 07:19:31;;;;;;;;;;;10.70;59.00;;;;;;5069659;28;19938;-73
2022/04/28 07:22:02;;;;;;;;;;;10.90;58.90;;;;;;5069598;28;20004;-72
2022/04/28 07:24:28;;;;;;;;;;;11.00;59.00;;;;;;5069974;28;20122;-73
2022/04/28 07:26:54;;;;;;;;;;;11.10;59.00;;;;;;5068483;28;19912;-72
2022/04/28 07:29:19;;;;;;;;;;;11.20;59.00;;;;;;5067851;28;19924;-72
2022/04/28 07:31:45;;;;;;;;;;;11.30;59.00;;;;;;5069479;28;19920;-74
2022/04/28 07:34:10;;;;;;;;;;;11.50;59.00;;;;;;5069877;28;19912;-72
2022/04/28 07:36:36;;;;;;;;;;;11.80;59.10;;;;;;5069645;28;19951;-73
2022/04/28 07:39:02;;;;;;;;;;;12.20;59.20;;;;;;5069277;28;19916;-74
2022/04/28 07:41:28;;;;;;;;;;;12.60;59.00;;;;;;5069187;28;19919;-73
2022/04/28 07:43:54;;;;;;;;;;;12.90;58.90;;;;;;5067866;28;19919;-74
2022/04/28 07:46:20;;;;;;;;;;;13.20;59.00;;;;;;5069211;28;19912;-74
2022/04/28 07:48:45;;;;;;;;;;;13.50;58.90;;;;;;5069077;28;19927;-73
2022/04/28 07:51:11;;;;;;;;;;;13.80;58.70;;;;;;5069155;28;19946;-75
2022/04/28 07:53:37;;;;;;;;;;;14.00;58.50;;;;;;5068826;28;19919;-73
2022/04/28 07:56:17;;;;;;;;;;;14.30;58.60;;;;;;5068961;28;19913;-73
2022/04/28 07:58:43;;;;;;;;;;;14.50;58.60;;;;;;5068548;28;20412;-73
2022/04/28 08:01:09;;;;;;;;;;;14.50;58.50;;;;;;5067039;28;20020;-74
2022/04/28 08:03:35;;;;;;;;;;;14.50;58.50;;;;;;5067523;28;19938;-73
2022/04/28 08:06:01;;;;;;;;;;;14.40;58.50;;;;;;5068484;28;20343;-74
2022/04/28 08:08:27;;;;;;;;;;;14.20;58.80;;;;;;5068931;28;20007;-73
2022/04/28 08:10:53;;;;;;;;;;;14.20;58.90;;;;;;5068505;28;19995;-73
2022/04/28 08:13:19;;;;;;;;;;;14.20;59.00;;;;;;5068548;28;20283;-74
2022/04/28 08:15:44;;;;;;;;;;;14.20;58.80;;;;;;5068368;28;19913;-73
2022/04/28 08:18:10;;;;;;;;;;;14.20;58.60;;;;;;5066875;28;20260;-72
2022/04/28 08:20:38;;;;;;;;;;;14.00;58.70;;;;;;5068213;28;20086;-73
2022/04/28 08:23:03;;;;;;;;;;;13.90;58.70;;;;;;5068615;28;19974;-73
2022/04/28 08:25:29;;;;;;;;;;;13.90;58.80;;;;;;5068455;28;19917;-73
2022/04/28 08:27:55;;;;;;;;;;;13.80;58.90;;;;;;5068428;28;20083;-73
2022/04/28 08:30:20;;;;;;;;;;;13.70;59.10;;;;;;5067977;28;19924;-74
2022/04/28 08:32:46;;;;;;;;;;;13.70;59.30;;;;;;5067627;28;19919;-73
2022/04/28 08:35:11;;;;;;;;;;;13.70;59.40;;;;;;5068485;28;20367;-73
2022/04/28 08:37:39;;;;;;;;;;;13.60;59.50;;;;;;5068671;28;19912;-73
2022/04/28 08:40:05;;;;;;;;;;;13.70;59.80;;;;;;5068175;28;19908;-73
2022/04/28 08:42:31;;;;;;;;;;;13.80;59.90;;;;;;5068410;28;20001;-73
2022/04/28 08:44:58;;;;;;;;;;;13.90;59.50;;;;;;5068338;28;19970;-73
2022/04/28 08:47:25;;;;;;;;;;;13.90;59.40;;;;;;5068353;28;19912;-73
2022/04/28 08:49:50;;;;;;;;;;;13.90;59.60;;;;;;5067977;28;19915;-74
2022/04/28 08:52:16;;;;;;;;;;;14.00;59.70;;;;;;5068003;28;19913;-74
2022/04/28 08:54:43;;;;;;;;;;;14.00;59.70;;;;;;5067912;28;19956;-74
2022/04/28 08:57:08;;;;;;;;;;;14.10;59.70;;;;;;5067939;28;19926;-73
2022/04/28 08:59:34;;;;;;;;;;;14.30;59.90;;;;;;5067814;28;19915;-73
2022/04/28 09:02:00;;;;;;;;;;;14.40;59.90;;;;;;5067443;28;20019;-73
2022/04/28 09:04:27;;;;;;;;;;;14.70;60.40;;;;;;5067815;28;19912;-73
2022/04/28 09:06:54;;;;;;;;;;;15.40;60.60;;;;;;5066422;28;20348;-73
2022/04/28 09:09:20;;;;;;;;;;;15.90;60.10;;;;;;5067569;28;19962;-73
2022/04/28 09:11:46;;;;;;;;;;;16.20;59.60;;;;;;5067858;28;19909;-74
2022/04/28 09:14:12;;;;;;;;;;;16.40;59.30;;;;;;5066810;28;19990;-74
2022/04/28 09:16:38;;;;;;;;;;;16.40;59.20;;;;;;5068506;28;20011;-74
2022/04/28 09:19:03;;;;;;;;;;;16.60;59.40;;;;;;5067009;28;19912;-74
2022/04/28 09:21:32;;;;;;;;;;;16.70;59.40;;;;;;5068530;28;19913;-74
2022/04/28 09:23:58;;;;;;;;;;;16.90;59.30;;;;;;5067425;28;19908;-73
2022/04/28 09:26:26;;;;;;;;;;;16.80;59.00;;;;;;5068657;28;19982;-73
2022/04/28 09:28:53;;;;;;;;;;;16.70;58.80;;;;;;5068660;28;19936;-73
2022/04/28 09:31:19;;;;;;;;;;;16.40;59.00;;;;;;5068209;28;20274;-73
2022/04/28 09:33:46;;;;;;;;;;;16.10;59.30;;;;;;5068402;28;19917;-73
2022/04/28 09:36:12;;;;;;;;;;;15.90;59.70;;;;;;5062329;28;20656;-74
2022/04/28 09:38:38;;;;;;;;;;;16.00;59.90;;;;;;5057815;28;19924;-73
2022/04/28 09:43:53;;;;;;;;;;;16.20;59.60;;;;;;5067908;28;19973;-73
2022/04/28 09:46:25;;;;;;;;;;;16.00;59.60;;;;;;5066731;28;19919;-74
2022/04/28 09:48:51;;;;;;;;;;;16.00;59.80;;;;;;5068135;28;20022;-73
2022/04/28 09:51:25;;;;;;;;;;;16.00;59.60;;;;;;5058613;28;19970;-73
2022/04/28 09:53:54;;;;;;;;;;;16.10;59.40;;;;;;5057049;28;19986;-73
2022/04/28 09:56:27;;;;;;;;;;;16.10;59.30;;;;;;5055708;28;20458;-73
2022/04/28 09:58:55;;;;;;;;;;;16.20;59.30;;;;;;5047274;28;19912;-73
2022/04/28 10:01:21;;;;;;;;;;;16.20;59.10;;;;;;5048019;28;20434;-71
2022/04/28 10:03:47;;;;;;;;;;;16.30;59.20;;;;;;5047470;28;19932;-72
2022/04/28 10:06:12;;;;;;;;;;;16.40;59.30;;;;;;5047370;28;19916;-71
2022/04/28 10:08:38;;;;;;;;;;;16.70;59.40;;;;;;5046237;28;20567;-72
2022/04/28 10:11:05;;;;;;;;;;;17.00;59.40;;;;;;5047694;28;19921;-73
2022/04/28 10:13:31;;;;;;;;;;;17.20;59.10;;;;;;5047645;28;19925;-72
2022/04/28 10:16:01;;;;;;;;;;;17.30;58.40;;;;;;5047753;28;19908;-72
2022/04/28 10:18:35;;;;;;;;;;;17.30;58.10;;;;;;5047841;28;19909;-72
2022/04/28 10:21:02;;;;;;;;;;;17.30;58.10;;;;;;5047713;28;20003;-70
2022/04/28 10:34:32;;;;;;;;;;;17.40;58.50;;;;;;5046978;28;20556;-71
2022/04/28 10:37:01;;;;;;;;;;;17.50;58.30;;;;;;5045996;28;19953;-72
2022/04/28 10:39:47;;;;;;;;;;;17.50;58.20;;;;;;5046126;28;19916;-72
2022/04/28 10:42:14;;;;;;;;;;;17.60;58.20;;;;;;5046991;28;19913;-73
2022/04/28 10:44:47;;;;;;;;;;;17.60;58.20;;;;;;5047471;28;19979;-72
2022/04/28 10:47:20;;;;;;;;;;;17.60;58.30;;;;;;5047209;28;19909;-71
2022/04/28 10:49:51;;;;;;;;;;;17.70;58.40;;;;;;5046026;28;20016;-71
2022/04/28 10:52:23;;;;;;;;;;;17.50;58.60;;;;;;5049722;28;19916;-71
2022/04/28 10:54:53;;;;;;;;;;;17.50;58.80;;;;;;5051062;28;19924;-72
2022/04/28 10:57:27;;;;;;;;;;;17.40;59.10;;;;;;5049282;28;19917;-71
2022/04/28 10:59:53;;;;;;;;;;;17.30;59.00;;;;;;5050731;28;19909;-73
2022/04/28 11:02:19;;;;;;;;;;;17.20;59.20;;;;;;5050582;28;19917;-72
2022/04/28 11:05:01;;;;;;;;;;;17.10;59.30;;;;;;5050785;28;19913;-72
2022/04/28 11:07:30;;;;;;;;;;;17.20;59.70;;;;;;5060617;28;19926;-71
2022/04/28 11:10:00;;;;;;;;;;;17.30;59.60;;;;;;5064092;28;19965;-72
2022/04/28 11:12:32;;;;;;;;;;;17.40;59.80;;;;;;5070849;28;19912;-72
2022/04/28 11:15:02;;;;;;;;;;;17.80;60.30;;;;;;5070876;28;19909;-73
2022/04/28 11:17:28;;;;;;;;;;;18.70;60.50;;;;;;5103639;28;19930;-73
2022/04/28 11:19:55;;;;;;;;;;;19.60;60.20;;;;;;5070819;28;20011;-74
2022/04/28 11:22:21;;;;;;;;;;;20.50;60.00;;;;;;5070491;28;20525;-73
2022/04/28 11:24:47;;;;;;;;;;;20.90;59.10;;;;;;5070432;28;19920;-72
2022/04/28 11:27:13;;;;;;;;;;;20.80;58.90;;;;;;5070464;28;19927;-72
2022/04/28 11:29:42;;;;;;;;;;;20.50;59.10;;;;;;5070244;28;20359;-72
2022/04/28 11:32:08;;;;;;;;;;;20.30;59.30;;;;;;5070247;28;19959;-73
2022/04/28 11:34:34;;;;;;;;;;;20.20;59.60;;;;;;5070556;28;19963;-73
2022/04/28 11:37:17;;;;;;;;;;;20.40;60.20;;;;;;5070251;28;20276;-63
2022/04/28 11:39:43;;;;;;;;;;;21.10;60.60;;;;;;5070277;28;19908;-71
2022/04/28 11:42:09;;;;;;;;;;;22.20;60.50;;;;;;5102820;28;20056;-73
2022/04/28 11:44:43;;;;;;;;;;;22.90;60.10;;;;;;5068208;28;19912;-73
2022/04/28 11:47:08;;;;;;;;;;;23.50;60.20;;;;;;5070030;28;19916;-73
2022/04/28 11:49:34;;;;;;;;;;;24.30;59.90;;;;;;5069612;28;19913;-70
2022/04/28 11:52:00;;;;;;;;;;;24.90;58.90;;;;;;5070008;28;19962;-73
2022/04/28 11:54:27;;;;;;;;;;;24.80;57.20;;;;;;5069924;28;19913;-71
2022/04/28 11:57:09;;;;;;;;;;;24.40;56.90;;;;;;5069900;28;19917;-74
2022/04/28 11:59:36;;;;;;;;;;;24.00;56.30;;;;;;5069862;28;19947;-72
2022/04/28 12:02:01;;;;;;;;;;;23.50;55.90;;;;;;5069189;28;19913;-73
2022/04/28 12:04:27;;;;;;;;;;;23.20;56.80;;;;;;5102116;28;19932;-72
2022/04/28 12:06:53;;;;;;;;;;;23.40;57.10;;;;;;5069794;28;20270;-73
2022/04/28 12:14:47;;;;;;;;;;;23.00;57.20;;;;;;5069804;28;20411;-72
2022/04/28 12:19:59;;;;;;;;;;;22.50;57.10;;;;;;5069171;28;19920;-72
2022/04/28 12:22:28;;;;;;;;;;;22.30;57.00;;;;;;5069384;28;19916;-71
2022/04/28 12:24:54;;;;;;;;;;;21.90;57.30;;;;;;5069360;28;20023;-74
2022/04/28 12:27:20;;;;;;;;;;;21.50;57.60;;;;;;5069689;28;20341;-75
2022/04/28 12:29:48;;;;;;;;;;;21.30;57.40;;;;;;5069323;28;19946;-69
2022/04/28 12:32:14;;;;;;;;;;;20.90;57.20;;;;;;5068932;28;20332;-70
2022/04/28 12:34:40;;;;;;;;;;;20.50;57.50;;;;;;5069006;28;19912;-72
2022/04/28 12:37:05;;;;;;;;;;;20.30;57.60;;;;;;5101161;28;20498;-73
2022/04/28 12:39:34;;;;;;;;;;;20.10;57.20;;;;;;5068721;28;20524;-73
2022/04/28 12:42:09;;;;;;;;;;;20.10;57.00;;;;;;5068776;28;19916;-73
2022/04/28 12:44:44;;;;;;;;;;;20.10;57.00;;;;;;5068883;28;19936;-74
2022/04/28 12:47:10;;;;;;;;;;;20.20;57.40;;;;;;5069347;28;19923;-74
2022/04/28 12:49:46;;;;;;;;;;;20.30;56.80;;;;;;5069282;28;19931;-73
2022/04/28 12:52:24;;;;;;;;;;;20.30;56.20;;;;;;5068913;28;20408;-73
2022/04/28 12:55:00;;;;;;;;;;;20.30;56.40;;;;;;5068730;28;19940;-72
2022/04/28 12:57:29;;;;;;;;;;;20.20;56.00;;;;;;5067448;28;19958;-73
2022/04/28 12:59:55;;;;;;;;;;;20.10;56.20;;;;;;5069033;28;19908;-72
2022/04/28 13:02:30;;;;;;;;;;;20.10;56.10;;;;;;5068580;28;20513;-73
2022/04/28 13:05:06;;;;;;;;;;;20.00;55.40;;;;;;5068764;28;20035;-74
2022/04/28 13:07:32;;;;;;;;;;;19.90;55.50;;;;;;5068388;28;20278;-74
2022/04/28 13:09:58;;;;;;;;;;;19.80;55.80;;;;;;5068372;28;19912;-73
2022/04/28 13:12:24;;;;;;;;;;;19.70;56.40;;;;;;5101079;28;20437;-73
2022/04/28 13:14:51;;;;;;;;;;;20.00;56.70;;;;;;5068019;28;20385;-74
2022/04/28 13:17:17;;;;;;;;;;;20.30;56.70;;;;;;5068536;28;20006;-72
2022/04/28 13:19:42;;;;;;;;;;;20.30;56.40;;;;;;5068641;28;19987;-73
2022/04/28 13:22:08;;;;;;;;;;;19.90;56.20;;;;;;5067096;28;20355;-72
2022/04/28 13:24:33;;;;;;;;;;;19.50;56.20;;;;;;5068492;28;19966;-74
2022/04/28 13:26:59;;;;;;;;;;;19.10;56.20;;;;;;5068343;28;19908;-74
2022/04/28 13:29:25;;;;;;;;;;;18.50;56.20;;;;;;5068646;28;19962;-73
2022/04/28 13:31:50;;;;;;;;;;;18.00;56.40;;;;;;5061635;28;19960;-74
2022/04/28 13:34:16;;;;;;;;;;;17.70;56.70;;;;;;5081832;28;19917;-74
2022/04/28 13:36:44;;;;;;;;;;;17.60;56.80;;;;;;5047631;28;21610;-73
2022/04/28 13:39:09;;;;;;;;;;;17.60;56.70;;;;;;5053283;28;19917;-73
2022/04/28 13:41:35;;;;;;;;;;;17.50;56.60;;;;;;5055090;28;19909;-74
2022/04/28 13:44:00;;;;;;;;;;;17.40;56.40;;;;;;5058683;28;20416;-73
2022/04/28 13:46:26;;;;;;;;;;;17.20;56.30;;;;;;5056033;28;19909;-73
2022/04/28 13:48:52;;;;;;;;;;;17.10;56.60;;;;;;5057720;28;19913;-74
2022/04/28 13:51:17;;;;;;;;;;;17.10;56.40;;;;;;5059772;28;19934;-74
2022/04/28 13:53:44;;;;;;;;;;;17.10;56.30;;;;;;5057995;28;19920;-73
2022/04/28 13:56:09;;;;;;;;;;;17.10;56.40;;;;;;5061887;28;19917;-75
2022/04/28 13:58:36;;;;;;;;;;;17.20;56.20;;;;;;5067405;28;19916;-73
2022/04/28 14:01:02;;;;;;;;;;;17.20;56.20;;;;;;5067476;28;19908;-72
2022/04/28 14:03:29;;;;;;;;;;;17.20;56.10;;;;;;5066440;28;19919;-74
2022/04/28 14:05:55;;;;;;;;;;;17.20;56.20;;;;;;5068040;28;19908;-74
2022/04/28 14:08:21;;;;;;;;;;;17.10;56.00;;;;;;5066586;28;20381;-73
2022/04/28 14:10:47;;;;;;;;;;;17.00;56.00;;;;;;5067811;28;20297;-73
2022/04/28 14:13:13;;;;;;;;;;;16.90;56.20;;;;;;5067989;28;19908;-73
2022/04/28 14:15:39;;;;;;;;;;;16.80;56.30;;;;;;5067783;28;19928;-72
2022/04/28 14:18:07;;;;;;;;;;;16.80;56.70;;;;;;5068018;28;19916;-73
2022/04/28 14:20:34;;;;;;;;;;;16.90;56.80;;;;;;5068242;28;20046;-73
2022/04/28 14:22:59;;;;;;;;;;;17.10;56.40;;;;;;5068168;28;19913;-74
2022/04/28 14:25:25;;;;;;;;;;;17.10;56.30;;;;;;5069354;28;20053;-73
2022/04/28 14:27:50;;;;;;;;;;;17.10;56.40;;;;;;5071775;28;19912;-73
2022/04/28 14:30:16;;;;;;;;;;;17.10;56.40;;;;;;5071818;28;20038;-73
2022/04/28 14:32:42;;;;;;;;;;;17.20;56.60;;;;;;5071385;28;19977;-74
2022/04/28 14:35:08;;;;;;;;;;;17.30;56.70;;;;;;5071861;28;20337;-73
2022/04/28 14:37:37;;;;;;;;;;;17.40;56.40;;;;;;5071586;28;19909;-73
2022/04/28 14:40:03;;;;;;;;;;;17.30;56.10;;;;;;5071578;28;20412;-73
2022/04/28 14:42:29;;;;;;;;;;;17.20;56.10;;;;;;5071228;28;19951;-74
2022/04/28 14:44:55;;;;;;;;;;;17.10;56.00;;;;;;5071486;28;20328;-73
2022/04/28 14:47:20;;;;;;;;;;;17.00;56.00;;;;;;5071205;28;19948;-73
2022/04/28 14:52:33;;;;;;;;;;;16.90;56.20;;;;;;5071258;28;19974;-73
2022/04/28 14:55:00;;;;;;;;;;;17.00;56.10;;;;;;5071127;28;20003;-73
2022/04/28 14:57:29;;;;;;;;;;;16.90;56.00;;;;;;5070928;28;20256;-74
2022/04/28 14:59:55;;;;;;;;;;;16.80;56.10;;;;;;5071158;28;19915;-73
2022/04/28 15:02:21;;;;;;;;;;;16.70;55.90;;;;;;5071133;28;19955;-72